createdAt,value
2022-11-03T00:01:45.410Z,11.38
2022-11-03T00:04:14.671Z,9.07
2022-11-03T00:06:42.858Z,12.50
2022-11-03T00:09:11.710Z,13.10
2022-11-03T00:11:41.081Z,9.73
2022-11-03T00:14:11.927Z,8.75
2022-11-03T00:16:39.906Z,10.25
2022-11-03T00:19:08.878Z,9.25
2022-11-03T00:21:36.434Z,12.10
2022-11-03T00:24:04.721Z,12.13
2022-11-03T00:26:34.242Z,24.17
2022-11-03T00:29:13.068Z,40.45
2022-11-03T00:31:45.021Z,24.00
2022-11-03T00:34:11.852Z,15.65
2022-11-03T00:36:44.049Z,16.33
2022-11-03T00:39:11.842Z,17.95
2022-11-03T00:41:39.046Z,14.05
2022-11-03T00:44:06.087Z,13.02
2022-11-03T00:46:35.988Z,14.40
2022-11-03T00:49:04.501Z,16.10
2022-11-03T00:51:33.596Z,16.70
2022-11-03T00:54:02.282Z,18.55
2022-11-03T00:56:34.542Z,21.52
2022-11-03T00:59:02.566Z,16.38
2022-11-03T01:01:32.480Z,17.77
2022-11-03T01:04:18.337Z,17.42
2022-11-03T01:06:50.361Z,21.10
2022-11-03T01:09:37.068Z,22.98
2022-11-03T01:12:12.765Z,18.38
2022-11-03T01:14:42.932Z,22.45
2022-11-03T01:17:32.071Z,42.13
2022-11-03T01:19:58.787Z,70.03
2022-11-03T01:22:25.432Z,85.97
2022-11-03T01:24:52.216Z,28.42
2022-11-03T01:27:22.232Z,35.85
2022-11-03T01:29:48.932Z,26.40
2022-11-03T01:32:15.687Z,40.83
2022-11-03T01:34:42.442Z,50.00
2022-11-03T01:37:09.210Z,29.55
2022-11-03T01:39:35.894Z,11.75
2022-11-03T01:42:02.814Z,21.85
2022-11-03T01:44:39.721Z,14.50
2022-11-03T01:47:12.987Z,13.73
2022-11-03T01:49:54.469Z,9.20
2022-11-03T01:52:36.620Z,12.52
2022-11-03T01:55:29.599Z,10.02
2022-11-03T01:58:02.451Z,7.38
2022-11-03T02:00:29.161Z,5.88
2022-11-03T02:02:56.381Z,7.60
2022-11-03T02:05:24.919Z,7.70
2022-11-03T02:07:58.700Z,6.53
2022-11-03T02:10:25.572Z,6.65
2022-11-03T02:12:52.619Z,7.45
2022-11-03T02:15:22.123Z,8.98
2022-11-03T02:17:52.078Z,8.20
2022-11-03T02:20:22.721Z,5.80
2022-11-03T02:23:08.163Z,6.25
2022-11-03T02:25:41.626Z,6.35
2022-11-03T02:28:08.714Z,7.45
2022-11-03T02:30:50.849Z,5.80
2022-11-03T02:33:17.462Z,6.38
2022-11-03T02:35:51.774Z,10.30
2022-11-03T02:38:22.980Z,8.95
2022-11-03T02:40:54.973Z,8.45
2022-11-03T02:43:24.757Z,9.75
2022-11-03T02:45:53.126Z,13.52
2022-11-03T02:48:20.002Z,10.48
2022-11-03T02:50:49.150Z,9.32
2022-11-03T02:53:16.606Z,11.82
2022-11-03T02:55:51.726Z,7.90
2022-11-03T02:58:32.117Z,11.48
2022-11-03T03:01:24.976Z,9.48
2022-11-03T03:04:01.378Z,10.55
2022-11-03T03:06:43.524Z,9.70
2022-11-03T03:09:18.546Z,9.73
2022-11-03T03:11:47.666Z,9.63
2022-11-03T03:14:22.915Z,9.27
2022-11-03T03:17:00.955Z,11.93
2022-11-03T03:19:41.434Z,11.55
2022-11-03T03:22:29.298Z,11.52
2022-11-03T03:24:59.863Z,15.70
2022-11-03T03:27:28.763Z,15.77
2022-11-03T03:30:07.046Z,11.68
2022-11-03T03:32:38.812Z,14.18
2022-11-03T03:35:08.783Z,11.52
2022-11-03T03:37:43.259Z,10.95
2022-11-03T03:40:13.954Z,8.77
2022-11-03T03:42:42.201Z,7.80
2022-11-03T03:45:11.853Z,7.10
2022-11-03T03:47:38.728Z,6.72
2022-11-03T03:50:06.266Z,7.53
2022-11-03T03:52:36.021Z,8.20
2022-11-03T03:55:02.720Z,8.50
2022-11-03T03:57:31.725Z,11.05
2022-11-03T03:59:58.555Z,22.38
2022-11-03T04:02:25.295Z,45.28
2022-11-03T04:04:52.055Z,44.67
2022-11-03T04:07:42.463Z,31.73
2022-11-03T04:10:11.034Z,23.52
2022-11-03T04:12:58.729Z,22.23
2022-11-03T04:15:43.950Z,20.20
2022-11-03T04:18:29.294Z,16.80
2022-11-03T04:21:14.559Z,16.10
2022-11-03T04:23:41.306Z,21.60
2022-11-03T04:26:13.714Z,20.50
2022-11-03T04:31:13.266Z,24.02
2022-11-03T04:33:41.628Z,76.75
2022-11-03T04:36:24.420Z,94.30
2022-11-03T04:38:52.022Z,84.30
2022-11-03T04:41:25.324Z,79.35
2022-11-03T04:43:52.873Z,48.58
2022-11-03T04:46:27.852Z,19.83
2022-11-03T04:48:58.098Z,24.55
2022-11-03T04:51:31.150Z,32.72
2022-11-03T04:54:13.327Z,40.85
2022-11-03T04:56:40.608Z,23.73
2022-11-03T04:59:15.059Z,48.65
2022-11-03T05:01:43.908Z,26.38
2022-11-03T05:04:18.103Z,24.15
2022-11-03T05:06:53.045Z,44.03
2022-11-03T05:09:41.881Z,60.67
2022-11-03T05:12:10.132Z,69.72
2022-11-03T05:14:37.694Z,37.67
2022-11-03T05:17:21.266Z,42.47
2022-11-03T05:19:48.091Z,48.17
2022-11-03T05:22:22.130Z,47.10
2022-11-03T05:24:57.924Z,31.48
2022-11-03T05:27:25.074Z,31.42
2022-11-03T05:29:59.473Z,45.15
2022-11-03T05:32:33.429Z,59.55
2022-11-03T05:35:01.046Z,74.18
2022-11-03T05:37:29.590Z,80.60
2022-11-03T05:40:03.726Z,79.22
2022-11-03T05:42:42.834Z,84.38
2022-11-03T05:45:20.381Z,69.80
2022-11-03T05:47:48.780Z,70.22
2022-11-03T05:50:18.433Z,71.90
2022-11-03T05:52:46.928Z,44.97
2022-11-03T05:55:34.078Z,66.70
2022-11-03T05:58:12.112Z,58.60
2022-11-03T06:00:47.088Z,62.10
2022-11-03T06:03:21.586Z,58.15
2022-11-03T06:05:48.395Z,47.53
2022-11-03T06:08:21.747Z,38.33
2022-11-03T06:10:54.032Z,57.08
2022-11-03T06:13:25.215Z,64.72
2022-11-03T06:15:57.933Z,50.90
2022-11-03T06:18:29.866Z,51.90
2022-11-03T06:20:59.728Z,38.92
2022-11-03T06:23:26.698Z,40.92
2022-11-03T06:25:55.754Z,33.20
2022-11-03T06:28:29.753Z,44.55
2022-11-03T06:30:56.798Z,29.77
2022-11-03T06:33:29.592Z,30.85
2022-11-03T06:36:01.538Z,31.65
2022-11-03T06:38:31.700Z,35.95
2022-11-03T06:40:58.969Z,40.40
2022-11-03T06:43:39.709Z,43.17
2022-11-03T06:46:14.976Z,30.52
2022-11-03T06:48:41.648Z,47.83
2022-11-03T06:51:35.337Z,21.73
2022-11-03T06:54:05.616Z,19.92
2022-11-03T06:56:36.781Z,31.05
2022-11-03T06:59:03.411Z,18.38
2022-11-03T07:01:32.732Z,18.20
2022-11-03T07:04:03.013Z,18.30
2022-11-03T07:06:32.070Z,44.05
2022-11-03T07:09:04.985Z,40.47
2022-11-03T07:11:36.110Z,26.48
2022-11-03T07:14:14.506Z,53.90
2022-11-03T07:16:47.908Z,53.83
2022-11-03T07:19:36.792Z,45.67
2022-11-03T07:22:16.725Z,68.90
2022-11-03T07:24:48.668Z,59.13
2022-11-03T07:27:25.314Z,40.30
2022-11-03T07:29:57.064Z,35.72
2022-11-03T07:32:29.376Z,55.17
2022-11-03T07:37:28.206Z,42.80
2022-11-03T07:39:54.925Z,49.22
2022-11-03T07:42:23.081Z,58.80
2022-11-03T07:44:53.372Z,47.22
2022-11-03T07:47:27.854Z,42.22
2022-11-03T07:49:56.159Z,69.07
2022-11-03T07:52:26.111Z,66.38
2022-11-03T07:54:57.151Z,33.42
2022-11-03T07:57:30.400Z,34.25
2022-11-03T08:00:03.881Z,47.10
2022-11-03T08:03:01.128Z,63.15
2022-11-03T08:05:27.762Z,29.60
2022-11-03T08:07:54.408Z,81.03
2022-11-03T08:10:21.586Z,40.53
2022-11-03T08:12:51.651Z,42.83
2022-11-03T08:15:18.284Z,29.85
2022-11-03T08:17:44.910Z,31.48
2022-11-03T08:20:11.946Z,55.22
2022-11-03T08:22:38.643Z,29.48
2022-11-03T08:25:05.769Z,43.22
2022-11-03T08:27:32.435Z,53.42
2022-11-03T08:29:59.093Z,41.38
2022-11-03T08:32:25.706Z,43.35
2022-11-03T08:34:52.424Z,83.90
2022-11-03T08:37:19.168Z,97.32
2022-11-03T08:39:45.817Z,56.00
2022-11-03T08:42:12.449Z,40.60
2022-11-03T08:44:39.117Z,29.98
2022-11-03T08:47:05.826Z,43.30
2022-11-03T08:49:32.458Z,44.08
2022-11-03T08:51:59.254Z,47.25
2022-11-03T08:54:26.492Z,58.40
2022-11-03T08:56:53.103Z,76.55
2022-11-03T08:59:19.733Z,32.35
2022-11-03T09:01:46.829Z,35.28
2022-11-03T09:04:13.587Z,77.85
2022-11-03T09:06:41.311Z,54.10
2022-11-03T09:11:54.608Z,69.45
2022-11-03T09:14:21.253Z,59.40
2022-11-03T09:16:47.872Z,58.45
2022-11-03T09:19:14.552Z,81.32
2022-11-03T09:21:41.218Z,36.17
2022-11-03T09:24:08.014Z,61.53
2022-11-03T09:26:34.794Z,93.13
2022-11-03T09:29:01.410Z,74.93
2022-11-03T09:31:29.272Z,63.85
2022-11-03T09:33:56.226Z,81.18
2022-11-03T09:36:22.898Z,70.47
2022-11-03T09:38:49.646Z,63.97
2022-11-03T09:41:27.687Z,23.00
2022-11-03T09:44:02.817Z,47.70
2022-11-03T09:46:30.486Z,45.65
2022-11-03T09:48:58.348Z,38.58
2022-11-03T09:51:27.373Z,24.38
2022-11-03T09:53:57.274Z,28.70
2022-11-03T09:56:25.648Z,16.83
2022-11-03T09:58:54.575Z,27.58
2022-11-03T10:01:22.882Z,27.98
2022-11-03T10:03:49.793Z,26.67
2022-11-03T10:06:17.664Z,17.52
2022-11-03T10:08:46.368Z,17.00
2022-11-03T10:11:13.660Z,28.00
2022-11-03T10:13:43.790Z,16.33
2022-11-03T10:16:14.946Z,14.75
2022-11-03T10:18:42.655Z,15.80
2022-11-03T10:21:14.921Z,16.35
2022-11-03T10:23:41.565Z,18.85
2022-11-03T10:26:11.119Z,10.05
2022-11-03T10:28:38.374Z,15.02
2022-11-03T10:31:11.777Z,15.95
2022-11-03T10:33:41.856Z,12.85
2022-11-03T10:36:17.431Z,12.07
2022-11-03T10:38:44.488Z,9.45
2022-11-03T10:41:17.451Z,13.02
2022-11-03T10:44:04.534Z,11.32
2022-11-03T10:49:20.609Z,11.38
2022-11-03T10:51:50.769Z,13.65
2022-11-03T10:54:19.637Z,18.63
2022-11-03T10:56:48.173Z,12.65
2022-11-03T10:59:20.751Z,16.00
2022-11-03T11:01:47.825Z,13.75
2022-11-03T11:04:19.187Z,13.93
2022-11-03T11:06:46.699Z,12.05
2022-11-03T11:09:19.488Z,14.13
2022-11-03T11:11:59.881Z,16.55
2022-11-03T11:14:28.028Z,12.27
2022-11-03T11:16:59.173Z,14.60
2022-11-03T11:19:27.839Z,14.15
2022-11-03T11:21:54.391Z,13.85
2022-11-03T11:24:50.133Z,12.48
2022-11-03T11:27:32.168Z,13.90
2022-11-03T11:29:59.525Z,17.10
2022-11-03T11:32:46.417Z,17.52
2022-11-03T11:35:17.738Z,14.98
2022-11-03T11:37:44.570Z,16.20
2022-11-03T11:40:35.145Z,15.55
2022-11-03T11:43:11.727Z,15.75
2022-11-03T11:46:16.355Z,13.95
2022-11-03T11:48:43.220Z,18.13
2022-11-03T11:51:11.672Z,20.00
2022-11-03T11:53:41.297Z,19.05
2022-11-03T11:56:14.023Z,17.27
2022-11-03T11:58:49.428Z,21.10
2022-11-03T12:01:32.728Z,24.63
2022-11-03T12:04:05.757Z,23.88
2022-11-03T12:06:37.445Z,19.83
2022-11-03T12:09:19.093Z,21.38
2022-11-03T12:11:55.403Z,20.77
2022-11-03T12:14:29.828Z,25.70
2022-11-03T12:17:16.894Z,23.63
2022-11-03T12:19:52.829Z,23.13
2022-11-03T12:22:29.405Z,29.33
2022-11-03T12:25:05.177Z,29.60
2022-11-03T12:27:34.176Z,29.20
2022-11-03T12:30:03.925Z,25.73
2022-11-03T12:32:34.861Z,28.75
2022-11-03T12:35:08.492Z,35.28
2022-11-03T12:37:36.218Z,25.00
2022-11-03T12:40:04.343Z,26.55
2022-11-03T12:42:31.599Z,26.02
2022-11-03T12:44:58.480Z,28.88
2022-11-03T12:47:25.391Z,30.98
2022-11-03T12:49:52.299Z,27.15
2022-11-03T12:52:19.263Z,25.67
2022-11-03T12:54:46.213Z,33.20
2022-11-03T12:57:13.984Z,25.02
2022-11-03T12:59:40.748Z,22.23
2022-11-03T13:02:10.499Z,27.45
2022-11-03T13:04:38.131Z,25.92
2022-11-03T13:07:04.793Z,24.52
2022-11-03T13:09:31.543Z,30.15
2022-11-03T13:12:16.724Z,28.30
2022-11-03T13:14:46.116Z,27.02
2022-11-03T13:17:15.242Z,23.35
2022-11-03T13:19:42.040Z,27.92
2022-11-03T13:22:08.742Z,26.45
2022-11-03T13:24:35.438Z,28.52
2022-11-03T13:27:02.157Z,25.52
2022-11-03T13:29:33.999Z,25.85
2022-11-03T13:32:03.565Z,26.30
2022-11-03T13:34:30.779Z,29.17
2022-11-03T13:36:58.689Z,30.35
2022-11-03T13:39:25.373Z,24.90
2022-11-03T13:41:52.015Z,25.33
2022-11-03T13:44:18.709Z,26.98
2022-11-03T13:46:45.339Z,23.23
2022-11-03T13:51:58.621Z,20.20
2022-11-03T14:00:02.002Z,25.48
2022-11-03T14:05:25.696Z,22.35
2022-11-03T14:07:52.388Z,26.40
2022-11-03T14:10:19.038Z,23.05
2022-11-03T14:12:45.728Z,28.00
2022-11-03T14:15:12.915Z,27.63
2022-11-03T14:17:40.406Z,26.33
2022-11-03T14:20:11.458Z,24.45
2022-11-03T14:22:39.441Z,24.63
2022-11-03T14:25:07.786Z,24.23
2022-11-03T14:27:34.506Z,23.55
2022-11-03T14:30:01.257Z,23.23
2022-11-03T14:32:27.958Z,24.25
2022-11-03T14:34:54.832Z,26.25
2022-11-03T14:37:22.699Z,27.67
2022-11-03T14:39:49.630Z,24.63
2022-11-03T14:42:16.749Z,24.13
2022-11-03T14:44:45.629Z,27.50
2022-11-03T14:47:14.920Z,25.15
2022-11-03T14:49:41.779Z,24.70
2022-11-03T14:52:08.578Z,26.02
2022-11-03T14:54:39.147Z,25.67
2022-11-03T14:57:05.986Z,24.13
2022-11-03T14:59:34.416Z,28.48
2022-11-03T15:02:02.032Z,24.55
2022-11-03T15:04:28.851Z,27.92
2022-11-03T15:06:55.746Z,25.92
2022-11-03T15:09:22.718Z,26.98
2022-11-03T15:11:49.595Z,26.73
2022-11-03T15:14:16.372Z,27.27
2022-11-03T15:16:44.057Z,27.42
2022-11-03T15:19:10.716Z,24.38
2022-11-03T15:21:38.699Z,26.58
2022-11-03T15:26:52.199Z,33.20
2022-11-03T15:29:19.027Z,28.40
2022-11-03T15:31:48.271Z,50.65
2022-11-03T15:34:16.426Z,36.15
2022-11-03T15:36:43.072Z,53.90
2022-11-03T15:39:09.767Z,54.78
2022-11-03T15:41:36.523Z,103.55
2022-11-03T15:44:03.419Z,62.72
2022-11-03T15:46:30.139Z,63.83
2022-11-03T15:48:57.673Z,61.67
2022-11-03T15:51:24.930Z,119.95
2022-11-03T15:53:57.784Z,97.43
2022-11-03T15:56:29.691Z,89.47
2022-11-03T15:58:56.540Z,74.43
2022-11-03T16:01:23.364Z,87.97
2022-11-03T16:03:50.186Z,123.70
2022-11-03T16:06:16.833Z,78.88
2022-11-03T16:08:43.619Z,62.60
2022-11-03T16:11:10.234Z,116.60
2022-11-03T16:13:36.884Z,93.32
2022-11-03T16:16:03.716Z,91.72
2022-11-03T16:18:30.446Z,100.97
2022-11-03T16:20:57.078Z,83.90
2022-11-03T16:23:23.867Z,135.77
2022-11-03T16:25:50.557Z,114.05
2022-11-03T16:28:17.334Z,77.38
2022-11-03T16:30:44.970Z,123.07
2022-11-03T16:33:12.992Z,69.20
2022-11-03T16:35:39.670Z,134.05
2022-11-03T16:38:09.425Z,120.03
2022-11-03T16:40:36.269Z,103.50
2022-11-03T16:43:02.894Z,117.30
2022-11-03T16:45:33.531Z,69.45
2022-11-03T16:48:03.187Z,164.55
2022-11-03T16:50:29.834Z,48.33
2022-11-03T16:52:57.129Z,49.03
2022-11-03T16:55:23.765Z,90.60
2022-11-03T16:57:50.443Z,69.15
2022-11-03T17:00:19.126Z,75.95
2022-11-03T17:02:46.690Z,61.40
2022-11-03T17:05:15.438Z,41.92
2022-11-03T17:07:42.230Z,82.65
2022-11-03T17:10:09.700Z,66.22
2022-11-03T17:12:36.564Z,78.97
2022-11-03T17:15:04.215Z,54.33
2022-11-03T17:17:30.935Z,60.78
2022-11-03T17:19:57.867Z,63.40
2022-11-03T17:22:24.752Z,52.55
2022-11-03T17:24:51.897Z,38.28
2022-11-03T17:27:22.526Z,42.83
2022-11-03T17:29:56.251Z,57.05
2022-11-03T17:32:31.512Z,51.35
2022-11-03T17:34:58.950Z,73.25
2022-11-03T17:37:26.363Z,58.65
2022-11-03T17:39:53.227Z,49.97
2022-11-03T17:42:25.374Z,46.78
2022-11-03T17:44:58.071Z,46.22
2022-11-03T17:47:25.135Z,68.25
2022-11-03T17:49:51.922Z,68.53
2022-11-03T17:52:28.620Z,58.38
2022-11-03T17:54:59.937Z,47.55
2022-11-03T17:57:27.012Z,47.30
2022-11-03T17:59:56.240Z,39.15
2022-11-03T18:02:28.767Z,45.13
2022-11-03T18:05:18.435Z,40.30
2022-11-03T18:07:48.116Z,44.50
2022-11-03T18:10:14.818Z,33.13
2022-11-03T18:13:04.657Z,43.50
2022-11-03T18:15:34.001Z,60.15
2022-11-03T18:18:01.702Z,54.65
2022-11-03T18:20:30.182Z,38.45
2022-11-03T18:23:12.251Z,30.88
2022-11-03T18:25:38.876Z,44.38
2022-11-03T18:28:05.707Z,30.77
2022-11-03T18:30:32.839Z,29.45
2022-11-03T18:32:59.807Z,33.63
2022-11-03T18:35:31.659Z,40.58
2022-11-03T18:37:58.421Z,48.90
2022-11-03T18:40:25.147Z,28.27
2022-11-03T18:42:51.824Z,30.85
2022-11-03T18:45:20.038Z,29.13
2022-11-03T18:47:46.735Z,36.92
2022-11-03T18:50:17.508Z,22.40
2022-11-03T18:52:51.981Z,38.58
2022-11-03T18:55:18.752Z,17.95
2022-11-03T18:57:45.483Z,40.05
2022-11-03T19:00:21.482Z,25.08
2022-11-03T19:02:48.171Z,20.73
2022-11-03T19:05:15.554Z,19.33
2022-11-03T19:07:49.220Z,22.67
2022-11-03T19:10:21.774Z,26.42
2022-11-03T19:12:48.611Z,27.08
2022-11-03T19:15:22.700Z,16.77
2022-11-03T19:17:57.911Z,21.75
2022-11-03T19:20:25.561Z,20.73
2022-11-03T19:22:52.846Z,16.00
2022-11-03T19:25:19.541Z,17.90
2022-11-03T19:27:48.074Z,16.35
2022-11-03T19:30:19.698Z,16.52
2022-11-03T19:32:49.641Z,16.27
2022-11-03T19:35:24.212Z,15.07
2022-11-03T19:38:11.078Z,15.27
2022-11-03T19:40:39.165Z,15.93
2022-11-03T19:43:09.232Z,15.77
2022-11-03T19:45:35.883Z,12.85
2022-11-03T19:50:52.276Z,30.50
2022-11-03T19:53:29.745Z,24.70
2022-11-03T19:55:57.172Z,23.08
2022-11-03T19:58:26.480Z,27.10
2022-11-03T20:00:54.099Z,22.40
2022-11-03T20:03:22.276Z,27.75
2022-11-03T20:05:52.214Z,21.20
2022-11-03T20:08:22.158Z,36.15
2022-11-03T20:10:49.008Z,29.85
2022-11-03T20:13:19.179Z,22.08
2022-11-03T20:15:46.780Z,24.58
2022-11-03T20:18:15.071Z,19.40
2022-11-03T20:20:43.821Z,17.25
2022-11-03T20:23:32.791Z,17.55
2022-11-03T20:25:59.805Z,17.25
2022-11-03T20:28:28.808Z,17.15
2022-11-03T20:30:56.366Z,17.63
2022-11-03T20:33:24.730Z,19.10
2022-11-03T20:35:53.644Z,16.73
2022-11-03T20:38:21.152Z,17.42
2022-11-03T20:40:49.075Z,20.10
2022-11-03T20:43:26.832Z,17.20
2022-11-03T20:45:54.710Z,15.77
2022-11-03T20:48:21.946Z,16.85
2022-11-03T20:50:49.442Z,15.93
2022-11-03T20:53:19.513Z,15.82
2022-11-03T20:55:46.310Z,14.85
2022-11-03T20:58:16.087Z,13.88
2022-11-03T21:00:44.588Z,15.65
2022-11-03T21:03:38.222Z,16.98
2022-11-03T21:06:04.872Z,14.95
2022-11-03T21:08:31.575Z,13.52
2022-11-03T21:11:18.196Z,14.05
2022-11-03T21:13:44.867Z,14.60
2022-11-03T21:16:30.253Z,13.93
2022-11-03T21:19:15.625Z,14.48
2022-11-03T21:21:42.323Z,14.93
2022-11-03T21:24:11.503Z,14.50
2022-11-03T21:26:40.114Z,14.68
2022-11-03T21:29:06.896Z,17.42
2022-11-03T21:31:33.689Z,17.30
2022-11-03T21:34:00.348Z,14.13
2022-11-03T21:36:27.327Z,13.57
2022-11-03T21:38:54.216Z,13.10
2022-11-03T21:41:39.620Z,15.52
2022-11-03T21:44:16.311Z,13.30
2022-11-03T21:46:44.344Z,13.13
2022-11-03T21:49:29.991Z,13.32
2022-11-03T21:51:56.924Z,14.18
2022-11-03T21:54:24.397Z,13.18
2022-11-03T21:56:51.292Z,13.93
2022-11-03T21:59:17.935Z,18.10
2022-11-03T22:01:45.183Z,16.73
2022-11-03T22:04:12.174Z,17.95
2022-11-03T22:06:39.067Z,17.13
2022-11-03T22:09:06.465Z,15.25
2022-11-03T22:11:33.495Z,18.17
2022-11-03T22:14:01.956Z,17.92
2022-11-03T22:16:38.484Z,22.90
2022-11-03T22:19:40.205Z,17.02
2022-11-03T22:22:30.957Z,17.10
2022-11-03T22:25:16.890Z,13.18
2022-11-03T22:27:44.609Z,17.02
2022-11-03T22:30:30.281Z,12.88
2022-11-03T22:32:58.009Z,13.60
2022-11-03T22:35:44.100Z,11.00
2022-11-03T22:38:13.496Z,9.25
2022-11-03T22:41:00.504Z,6.88
2022-11-03T22:43:46.432Z,7.05
2022-11-03T22:46:15.345Z,6.10
2022-11-03T22:48:43.630Z,4.82
2022-11-03T22:51:13.403Z,4.05
2022-11-03T22:53:59.119Z,3.63
2022-11-03T22:56:28.106Z,3.40
2022-11-03T22:58:55.491Z,4.95
2022-11-03T23:01:26.831Z,2.42
2022-11-03T23:03:54.112Z,2.08
2022-11-03T23:06:26.113Z,2.35
2022-11-03T23:08:55.381Z,2.22
2022-11-03T23:11:33.992Z,1.02
2022-11-03T23:14:06.007Z,1.23
2022-11-03T23:16:35.269Z,1.17
2022-11-03T23:19:21.893Z,1.05
2022-11-03T23:21:51.183Z,2.55
2022-11-03T23:24:42.180Z,0.70
2022-11-03T23:27:12.809Z,1.30
2022-11-03T23:29:40.269Z,0.88
2022-11-03T23:32:07.483Z,0.80
2022-11-03T23:34:37.164Z,0.77
2022-11-03T23:37:04.049Z,1.45
2022-11-03T23:39:30.822Z,0.88
2022-11-03T23:41:57.854Z,0.95
2022-11-03T23:44:24.539Z,0.50
2022-11-03T23:47:09.903Z,1.75
2022-11-03T23:49:36.580Z,1.48
2022-11-03T23:52:03.244Z,1.48
2022-11-03T23:54:30.014Z,0.60
2022-11-03T23:57:15.300Z,1.15
2022-11-03T23:59:42.202Z,2.75
